Time;durP1;ratioP1;P1;durP2;ratioP2;P2;SDS_P1;SDS_P2;PMS_P1;PMS_P2;Temp;Humidity;BMP_temperature;BMP_pressure;BME280_temperature;BME280_humidity;BME280_pressure;Samples;Min_cycle;Max_cycle;Signal;HPM_P1;HPM_P2
2022/03/06 00:01:02;;;;;;;4.30;2.05;;;;;;;6.44;52.69;100353.31;1748176;80;21070;-62
2022/03/06 00:03:31;;;;;;;3.83;2.10;;;;;;;6.39;52.59;100352.48;1751356;81;22170;-70
2022/03/06 00:05:58;;;;;;;5.15;2.67;;;;;;;6.60;52.21;100348.24;1755518;80;21593;-62
2022/03/06 00:08:28;;;;;;;4.83;2.35;;;;;;;6.50;52.15;100357.89;1756631;80;21035;-61
2022/03/06 00:10:57;;;;;;;5.35;2.83;;;;;;;6.51;52.42;100360.32;1756748;80;21141;-61
2022/03/06 00:13:23;;;;;;;4.53;2.62;;;;;;;6.63;52.14;100364.77;1756645;80;21001;-63
2022/03/06 00:15:51;;;;;;;5.03;2.72;;;;;;;6.65;52.14;100368.50;1755595;80;22457;-62
2022/03/06 00:18:19;;;;;;;4.28;2.35;;;;;;;6.68;52.05;100363.01;1755899;81;21070;-60
2022/03/06 00:20:47;;;;;;;5.28;2.70;;;;;;;6.67;52.16;100365.28;1755994;81;21037;-61
2022/03/06 00:23:14;;;;;;;4.80;2.72;;;;;;;6.75;51.93;100367.91;1757109;80;20982;-61
2022/03/06 00:25:43;;;;;;;4.97;2.60;;;;;;;6.72;52.04;100365.62;1755876;81;21046;-69
2022/03/06 00:28:11;;;;;;;5.85;2.87;;;;;;;6.68;52.18;100366.89;1726142;81;22306;-60
2022/03/06 00:30:41;;;;;;;7.62;2.85;;;;;;;6.78;51.88;100365.81;1713664;82;22266;-62
2022/03/06 00:33:10;;;;;;;6.33;2.98;;;;;;;6.79;52.06;100368.72;1738411;81;21496;-60
2022/03/06 00:35:37;;;;;;;4.15;2.35;;;;;;;6.70;52.14;100363.65;1736807;82;20970;-71
2022/03/06 00:38:04;;;;;;;5.62;2.85;;;;;;;6.67;52.33;100376.94;1725918;81;21105;-61
2022/03/06 00:40:34;;;;;;;8.30;3.30;;;;;;;6.51;52.79;100377.15;1756346;81;21209;-63
2022/03/06 00:43:03;;;;;;;5.87;2.95;;;;;;;6.50;53.01;100371.66;1755699;81;21555;-61
2022/03/06 00:45:30;;;;;;;6.12;3.08;;;;;;;6.36;53.33;100372.20;1756804;80;22261;-61
2022/03/06 00:47:59;;;;;;;6.15;3.12;;;;;;;6.39;53.44;100374.50;1736289;81;21114;-73
2022/03/06 00:50:27;;;;;;;5.42;2.50;;;;;;;6.61;53.07;100376.25;1757054;80;21105;-61
2022/03/06 00:52:57;;;;;;;4.87;2.60;;;;;;;6.72;52.96;100369.50;1756117;81;21753;-64
2022/03/06 00:55:24;;;;;;;4.80;2.92;;;;;;;6.60;53.11;100373.34;1756632;80;20990;-62
2022/03/06 00:57:54;;;;;;;6.72;3.00;;;;;;;6.66;53.05;100381.77;1755260;81;21268;-63
2022/03/06 01:00:23;;;;;;;5.45;2.52;;;;;;;6.61;53.06;100377.55;1748382;80;22450;-62
2022/03/06 01:02:54;;;;;;;6.70;3.20;;;;;;;6.68;52.96;100379.36;1754290;80;21058;-63
2022/03/06 01:05:22;;;;;;;5.90;2.80;;;;;;;6.69;52.99;100380.98;1758665;80;21144;-64
2022/03/06 01:07:50;;;;;;;4.10;2.33;;;;;;;6.68;52.83;100392.80;1755024;81;21045;-63
2022/03/06 01:10:19;;;;;;;6.17;2.62;;;;;;;6.80;52.40;100390.27;1757852;80;21327;-63
2022/03/06 01:12:48;;;;;;;4.70;2.42;;;;;;;6.80;52.28;100391.55;1756570;80;21041;-62
2022/03/06 01:15:16;;;;;;;5.90;2.22;;;;;;;6.78;52.05;100390.89;1756289;81;21002;-63
2022/03/06 01:17:44;;;;;;;4.53;2.25;;;;;;;6.78;51.97;100383.95;1755518;80;21183;-63
2022/03/06 01:20:12;;;;;;;4.40;2.40;;;;;;;6.61;51.94;100394.38;1745091;80;20998;-61
2022/03/06 01:22:41;;;;;;;4.97;2.40;;;;;;;6.65;52.02;100400.38;1726893;80;21097;-60
2022/03/06 01:25:09;;;;;;;5.12;2.42;;;;;;;6.72;52.09;100399.30;1733479;80;21011;-63
2022/03/06 01:27:39;;;;;;;4.72;2.20;;;;;;;6.78;51.87;100406.42;1734685;80;20979;-73
2022/03/06 01:30:08;;;;;;;4.55;2.45;;;;;;;6.58;51.62;100405.36;1734777;80;21252;-66
2022/03/06 01:32:36;;;;;;;5.60;2.30;;;;;;;6.58;52.13;100405.84;1732135;81;21117;-62
2022/03/06 01:35:05;;;;;;;4.40;2.55;;;;;;;6.77;51.66;100404.81;1735816;80;21057;-59
2022/03/06 01:37:33;;;;;;;5.37;2.40;;;;;;;6.84;51.62;100417.48;1732551;81;21057;-71
2022/03/06 01:40:00;;;;;;;5.37;2.65;;;;;;;6.87;51.33;100421.06;1730356;80;21512;-60
2022/03/06 01:42:28;;;;;;;6.15;2.50;;;;;;;6.98;51.13;100405.73;1736538;80;21158;-60
2022/03/06 01:44:56;;;;;;;4.40;2.15;;;;;;;6.94;51.21;100416.89;1734138;81;21132;-62
2022/03/06 01:47:35;;;;;;;7.25;2.77;;;;;;;7.03;50.72;100412.06;1739055;80;21128;-71
2022/03/06 01:50:05;;;;;;;6.47;2.55;;;;;;;7.09;50.73;100414.53;1735129;80;21116;-60
2022/03/06 01:52:32;;;;;;;4.17;2.35;;;;;;;6.80;50.91;100421.35;1731676;81;21163;-59
2022/03/06 01:54:59;;;;;;;5.83;2.30;;;;;;;6.55;51.22;100418.64;1734123;81;21322;-63
2022/03/06 01:57:28;;;;;;;5.17;2.27;;;;;;;6.76;51.15;100423.92;1731146;81;22233;-60
2022/03/06 01:59:56;;;;;;;5.08;2.00;;;;;;;6.71;51.12;100428.77;1734006;81;21136;-59
2022/03/06 02:02:24;;;;;;;3.52;1.80;;;;;;;6.64;51.26;100430.34;1732407;80;20994;-60
2022/03/06 02:04:53;;;;;;;5.30;2.58;;;;;;;6.57;51.37;100432.23;1729787;80;21009;-72
2022/03/06 02:07:20;;;;;;;4.30;2.10;;;;;;;6.48;51.63;100435.75;1724719;81;21142;-73
2022/03/06 02:09:48;;;;;;;4.83;2.35;;;;;;;6.45;52.07;100441.22;1724958;81;21744;-62
2022/03/06 02:12:26;;;;;;;5.10;2.60;;;;;;;6.39;52.26;100445.70;1730079;81;21049;-61
2022/03/06 02:14:56;;;;;;;4.50;2.20;;;;;;;6.10;52.86;100449.86;1730921;81;21019;-65
2022/03/06 02:17:23;;;;;;;5.10;2.10;;;;;;;6.15;53.31;100450.70;1725579;80;21045;-62
2022/03/06 02:19:56;;;;;;;4.90;2.20;;;;;;;6.43;52.75;100456.08;1749769;80;22240;-61
2022/03/06 02:22:29;;;;;;;4.47;2.02;;;;;;;6.50;52.46;100454.52;1749315;80;20983;-59
2022/03/06 02:24:56;;;;;;;4.95;2.02;;;;;;;6.55;52.28;100455.36;1747874;81;21090;-62
2022/03/06 02:27:24;;;;;;;4.35;2.25;;;;;;;6.42;52.13;100458.35;1748249;81;21021;-60
2022/03/06 02:29:52;;;;;;;4.37;2.10;;;;;;;6.18;52.72;100465.45;1748919;80;21156;-59
2022/03/06 02:32:21;;;;;;;4.45;2.60;;;;;;;6.36;52.68;100470.59;1748849;81;22233;-60
2022/03/06 02:34:50;;;;;;;5.42;2.37;;;;;;;6.41;52.41;100470.98;1750071;80;20935;-61
2022/03/06 02:37:20;;;;;;;5.10;2.42;;;;;;;6.50;52.11;100475.23;1737643;80;21191;-62
2022/03/06 02:39:47;;;;;;;4.70;2.27;;;;;;;6.54;51.91;100477.86;1749076;81;21082;-62
2022/03/06 02:42:30;;;;;;;4.28;1.82;;;;;;;6.46;52.15;100484.77;1749653;80;21042;-60
2022/03/06 02:44:58;;;;;;;6.97;2.00;;;;;;;6.50;51.87;100483.01;1742986;81;21226;-73
2022/03/06 02:47:26;;;;;;;3.70;1.57;;;;;;;6.51;51.88;100479.44;1724679;81;21090;-60
2022/03/06 02:49:53;;;;;;;4.12;1.90;;;;;;;6.44;51.94;100487.97;1749866;80;21048;-60
2022/03/06 02:52:21;;;;;;;4.15;2.12;;;;;;;6.43;52.08;100485.86;1749762;80;21067;-63
2022/03/06 02:54:48;;;;;;;4.15;2.35;;;;;;;6.51;51.96;100492.39;1748292;81;20935;-71
2022/03/06 02:57:15;;;;;;;3.75;1.92;;;;;;;6.49;51.83;100491.75;1749321;80;21248;-61
2022/03/06 02:59:44;;;;;;;7.65;1.70;;;;;;;6.23;51.88;100497.36;1748398;81;21682;-61
2022/03/06 03:02:14;;;;;;;4.58;2.10;;;;;;;6.53;51.61;100495.66;1690733;84;20937;-61
2022/03/06 03:04:41;;;;;;;4.53;2.20;;;;;;;6.55;51.38;100497.63;1751471;81;21015;-74
2022/03/06 03:07:08;;;;;;;4.17;2.17;;;;;;;6.66;51.13;100499.62;1725914;81;21169;-60
2022/03/06 03:09:35;;;;;;;4.70;2.10;;;;;;;6.07;51.84;100500.63;1756681;80;21709;-62
2022/03/06 03:12:05;;;;;;;4.90;2.02;;;;;;;6.01;52.25;100499.42;1726566;81;21105;-61
2022/03/06 03:14:33;;;;;;;4.53;2.30;;;;;;;6.25;51.78;100504.48;1738609;81;20924;-62
2022/03/06 03:17:00;;;;;;;4.25;2.12;;;;;;;6.32;51.75;100502.44;1737012;82;21007;-65
2022/03/06 03:19:28;;;;;;;4.50;2.00;;;;;;;6.50;51.06;100502.91;1735306;82;21125;-60
2022/03/06 03:21:56;;;;;;;5.08;2.22;;;;;;;6.63;50.59;100503.80;1726632;81;21098;-60
2022/03/06 03:24:24;;;;;;;5.03;1.80;;;;;;;6.80;50.14;100500.38;1756649;80;21022;-63
2022/03/06 03:26:52;;;;;;;4.08;2.15;;;;;;;6.71;50.04;100509.88;1755593;81;20982;-73
2022/03/06 03:29:20;;;;;;;4.47;2.30;;;;;;;6.65;50.05;100513.06;1755654;81;21097;-61
2022/03/06 03:31:48;;;;;;;6.65;2.62;;;;;;;6.74;49.83;100516.06;1727252;81;20969;-63
2022/03/06 03:34:16;;;;;;;4.25;2.37;;;;;;;6.79;49.73;100520.30;1756374;81;21192;-61
2022/03/06 03:36:43;;;;;;;4.28;2.00;;;;;;;6.55;49.85;100523.53;1756344;80;21046;-73
2022/03/06 03:39:12;;;;;;;6.92;2.60;;;;;;;6.95;49.41;100533.83;1756039;80;21108;-65
2022/03/06 03:41:41;;;;;;;4.78;2.20;;;;;;;6.99;49.03;100527.38;1756924;80;21446;-65
2022/03/06 03:44:08;;;;;;;4.53;2.47;;;;;;;6.98;48.91;100529.65;1727148;81;22261;-62
2022/03/06 03:46:36;;;;;;;4.97;2.65;;;;;;;6.70;49.09;100526.84;1737831;82;21289;-73
2022/03/06 03:49:03;;;;;;;5.10;2.55;;;;;;;6.59;49.43;100533.08;1738144;81;21058;-63
2022/03/06 03:51:31;;;;;;;5.35;2.83;;;;;;;6.46;49.64;100537.36;1738494;81;20892;-62
2022/03/06 03:53:59;;;;;;;4.67;2.35;;;;;;;6.70;49.13;100538.51;1735287;81;21563;-63
2022/03/06 03:56:26;;;;;;;5.25;2.60;;;;;;;6.85;48.75;100538.29;1736770;82;21619;-74
2022/03/06 03:58:53;;;;;;;5.28;2.80;;;;;;;6.81;48.75;100536.97;1738034;81;22376;-62
2022/03/06 04:01:21;;;;;;;5.00;2.60;;;;;;;6.72;48.90;100537.89;1717510;81;21045;-64
2022/03/06 04:03:51;;;;;;;5.08;2.45;;;;;;;6.81;48.65;100539.08;1733031;82;21494;-63
2022/03/06 04:06:18;;;;;;;6.55;3.05;;;;;;;6.72;48.62;100546.95;1726368;82;21047;-63
2022/03/06 04:08:45;;;;;;;4.72;2.42;;;;;;;6.69;48.90;100547.25;1711459;82;21056;-63
2022/03/06 04:11:13;;;;;;;4.50;2.50;;;;;;;6.74;48.71;100554.08;1697084;83;22522;-65
2022/03/06 04:13:42;;;;;;;5.17;2.77;;;;;;;6.89;48.47;100555.16;1700051;83;21031;-63
2022/03/06 04:16:10;;;;;;;5.10;2.55;;;;;;;6.91;48.30;100562.31;1670861;83;21050;-63
2022/03/06 04:18:38;;;;;;;5.28;2.52;;;;;;;6.95;48.23;100559.75;1675407;83;20961;-75
2022/03/06 04:21:05;;;;;;;6.20;3.33;;;;;;;6.86;48.35;100564.55;1708057;82;21024;-61
2022/03/06 04:23:34;;;;;;;7.72;3.12;;;;;;;6.74;48.65;100570.92;1712570;82;21169;-69
2022/03/06 04:26:02;;;;;;;5.15;2.70;;;;;;;6.68;48.78;100576.23;1717601;82;21084;-63
2022/03/06 04:28:30;;;;;;;5.03;3.02;;;;;;;6.87;48.74;100572.66;1713235;82;21497;-69
2022/03/06 04:30:58;;;;;;;5.28;2.98;;;;;;;7.00;48.36;100577.43;1717196;82;21049;-74
2022/03/06 04:33:25;;;;;;;4.80;2.72;;;;;;;6.88;48.39;100572.98;1723683;82;21491;-62
2022/03/06 04:35:52;;;;;;;5.75;3.17;;;;;;;6.85;48.25;100573.77;1724767;82;21249;-63
2022/03/06 04:38:20;;;;;;;5.37;3.12;;;;;;;6.98;48.15;100576.78;1690238;82;20986;-66
2022/03/06 04:40:48;;;;;;;5.05;2.72;;;;;;;6.96;48.22;100580.80;1710321;82;20993;-62
2022/03/06 04:43:15;;;;;;;5.17;3.15;;;;;;;7.21;48.02;100584.87;1708724;82;21052;-61
2022/03/06 04:45:43;;;;;;;6.30;3.47;;;;;;;7.71;47.99;100584.95;1713186;82;21980;-63
2022/03/06 04:48:10;;;;;;;6.35;3.20;;;;;;;7.97;47.25;100583.59;1732408;82;21143;-61
2022/03/06 04:50:40;;;;;;;5.17;3.27;;;;;;;8.21;46.52;100583.31;1721964;82;21605;-69
2022/03/06 04:53:07;;;;;;;6.70;2.90;;;;;;;8.36;45.88;100586.91;1708779;82;21066;-68
2022/03/06 04:55:34;;;;;;;5.47;2.67;;;;;;;8.35;45.57;100585.29;1714251;82;21091;-64
2022/03/06 04:58:03;;;;;;;5.30;2.80;;;;;;;8.12;45.81;100593.37;1719868;82;21655;-66
2022/03/06 05:00:33;;;;;;;5.10;2.90;;;;;;;8.23;45.62;100599.07;1709125;82;21641;-65
2022/03/06 05:03:00;;;;;;;5.80;3.02;;;;;;;8.18;45.48;100609.59;1712209;82;21123;-62
2022/03/06 05:05:28;;;;;;;6.35;2.75;;;;;;;8.03;45.71;100606.79;1714687;82;21012;-64
2022/03/06 05:07:57;;;;;;;5.87;3.10;;;;;;;7.79;45.89;100604.93;1709729;83;21082;-61
2022/03/06 05:10:25;;;;;;;5.55;2.52;;;;;;;7.93;46.03;100614.73;1709042;82;21040;-73
2022/03/06 05:12:52;;;;;;;4.58;2.90;;;;;;;7.96;46.12;100605.33;1715627;82;21291;-61
2022/03/06 05:15:20;;;;;;;5.37;2.92;;;;;;;7.96;46.14;100602.73;1722852;82;21064;-75
2022/03/06 05:17:49;;;;;;;5.72;3.10;;;;;;;8.09;46.20;100605.36;1717629;82;21651;-64
2022/03/06 05:20:16;;;;;;;6.33;3.05;;;;;;;8.36;45.79;100601.69;1723150;82;21008;-65
2022/03/06 05:22:45;;;;;;;5.75;3.08;;;;;;;8.16;46.04;100598.56;1727830;82;21062;-65
2022/03/06 05:25:12;;;;;;;5.50;3.12;;;;;;;8.36;45.53;100606.87;1723530;82;21247;-67
2022/03/06 05:27:41;;;;;;;7.00;3.35;;;;;;;8.13;45.90;100622.25;1727990;82;20932;-64
2022/03/06 05:30:11;;;;;;;5.05;2.60;;;;;;;8.17;46.22;100626.15;1713121;82;21469;-64
2022/03/06 05:32:40;;;;;;;5.47;3.00;;;;;;;8.10;46.10;100620.77;1674541;82;21003;-64
2022/03/06 05:35:10;;;;;;;7.67;3.42;;;;;;;8.17;46.39;100624.85;1726794;82;21118;-63
2022/03/06 05:37:38;;;;;;;4.90;2.92;;;;;;;8.35;46.19;100622.95;1722536;82;21176;-61
2022/03/06 05:40:08;;;;;;;5.95;3.00;;;;;;;8.45;45.87;100621.55;1725200;82;22336;-66
2022/03/06 05:42:37;;;;;;;8.35;4.47;;;;;;;8.65;45.65;100624.66;1724039;82;21114;-66
2022/03/06 05:45:06;;;;;;;6.72;3.83;;;;;;;8.74;45.52;100626.27;1730700;82;21116;-66
2022/03/06 05:47:33;;;;;;;6.37;3.83;;;;;;;8.85;45.53;100630.34;1721223;82;21707;-65
2022/03/06 05:50:02;;;;;;;8.10;4.50;;;;;;;8.95;45.35;100627.11;1708612;82;21257;-66
2022/03/06 05:52:29;;;;;;;8.58;4.40;;;;;;;9.07;45.30;100632.29;1707697;82;22319;-67
2022/03/06 05:54:57;;;;;;;5.80;3.42;;;;;;;9.09;45.44;100630.35;1708595;82;21668;-67
2022/03/06 05:57:24;;;;;;;6.78;3.77;;;;;;;9.26;45.05;100624.13;1705986;82;21097;-71
2022/03/06 05:59:52;;;;;;;7.22;3.55;;;;;;;9.22;44.76;100630.65;1708647;82;21529;-67
2022/03/06 06:02:21;;;;;;;5.25;3.52;;;;;;;9.29;44.76;100630.00;1701987;82;21133;-72
2022/03/06 06:04:48;;;;;;;6.00;3.33;;;;;;;9.53;44.52;100632.53;1690336;83;21104;-66
2022/03/06 06:07:16;;;;;;;5.62;3.37;;;;;;;9.43;44.17;100634.50;1685259;83;21019;-70
2022/03/06 06:09:45;;;;;;;6.50;3.20;;;;;;;9.43;44.47;100637.11;1686933;83;21146;-66
2022/03/06 06:12:13;;;;;;;5.80;2.90;;;;;;;9.54;44.23;100641.16;1691576;83;21114;-71
2022/03/06 06:14:40;;;;;;;5.28;2.98;;;;;;;9.61;43.50;100639.02;1696489;83;21302;-65
2022/03/06 06:17:09;;;;;;;5.55;2.90;;;;;;;9.68;43.35;100652.18;1686864;83;20959;-65
2022/03/06 06:19:37;;;;;;;5.42;2.75;;;;;;;9.65;43.46;100645.50;1681185;83;20961;-67
2022/03/06 06:22:06;;;;;;;7.28;3.40;;;;;;;9.63;43.63;100653.18;1689748;83;21599;-67
2022/03/06 06:24:35;;;;;;;4.58;2.60;;;;;;;9.60;43.34;100648.30;1689835;83;21152;-61
2022/03/06 06:27:04;;;;;;;5.55;3.05;;;;;;;9.75;43.36;100651.84;1688074;83;21262;-61
2022/03/06 06:29:32;;;;;;;5.87;3.50;;;;;;;9.91;42.61;100651.77;1686779;83;21099;-64
2022/03/06 06:31:59;;;;;;;4.55;2.58;;;;;;;10.05;41.84;100655.97;1669140;83;21079;-62
2022/03/06 06:34:26;;;;;;;4.47;2.50;;;;;;;10.04;41.57;100651.25;1669717;84;21162;-63
2022/03/06 06:36:57;;;;;;;5.87;2.90;;;;;;;10.06;41.91;100660.18;1665944;83;20958;-65
2022/03/06 06:39:22;;;;;;;5.37;2.72;;;;;;;10.26;41.75;100664.02;1702517;83;21151;-63
2022/03/06 06:41:51;;;;;;;4.80;2.60;;;;;;;10.32;41.55;100664.64;1724222;81;21118;-64
2022/03/06 06:44:19;;;;;;;4.95;2.67;;;;;;;10.58;41.21;100667.44;1702058;83;22049;-64
2022/03/06 06:46:48;;;;;;;5.33;2.70;;;;;;;10.90;41.22;100667.69;1745016;80;20969;-63
2022/03/06 06:49:16;;;;;;;5.03;2.90;;;;;;;10.89;40.79;100668.19;1724163;81;21001;-65
2022/03/06 06:51:44;;;;;;;5.20;2.67;;;;;;;10.78;40.68;100663.87;1717833;81;21266;-63
2022/03/06 06:54:13;;;;;;;4.33;2.75;;;;;;;10.78;40.73;100667.78;1695986;83;21011;-62
2022/03/06 06:56:40;;;;;;;5.28;2.62;;;;;;;10.61;40.53;100677.52;1697518;83;21607;-63
2022/03/06 06:59:09;;;;;;;5.12;2.65;;;;;;;10.79;40.53;100675.91;1688370;83;21030;-64
2022/03/06 07:01:36;;;;;;;5.30;3.17;;;;;;;10.94;40.74;100674.98;1703406;82;21063;-70
2022/03/06 07:04:04;;;;;;;4.75;2.55;;;;;;;11.07;41.17;100678.81;1708109;82;21251;-70
2022/03/06 07:06:32;;;;;;;5.65;2.95;;;;;;;11.44;41.33;100672.28;1714799;82;21590;-61
2022/03/06 07:09:01;;;;;;;4.62;2.67;;;;;;;11.80;41.55;100672.88;1716915;82;21004;-63
2022/03/06 07:11:29;;;;;;;4.83;2.50;;;;;;;11.99;40.99;100675.96;1716537;82;21067;-68
2022/03/06 07:13:56;;;;;;;4.97;2.83;;;;;;;12.22;40.08;100670.11;1714346;82;22313;-65
2022/03/06 07:16:26;;;;;;;4.45;2.50;;;;;;;12.27;39.79;100672.97;1721040;82;21414;-64
2022/03/06 07:18:55;;;;;;;5.60;2.80;;;;;;;12.16;40.02;100676.89;1724602;80;20852;-63
2022/03/06 07:21:22;;;;;;;6.10;3.20;;;;;;;12.25;39.87;100681.51;1725143;81;20941;-69
2022/03/06 07:23:49;;;;;;;6.20;3.35;;;;;;;12.20;39.20;100679.11;1730064;81;21634;-69
2022/03/06 07:26:18;;;;;;;5.08;2.90;;;;;;;12.22;39.60;100676.64;1725280;80;21453;-63
2022/03/06 07:28:47;;;;;;;6.45;3.40;;;;;;;11.89;40.26;100679.67;1682205;84;20972;-65
2022/03/06 07:31:16;;;;;;;8.65;3.75;;;;;;;11.92;40.50;100689.73;1697926;83;21051;-64
2022/03/06 07:33:43;;;;;;;7.08;3.90;;;;;;;12.02;40.96;100684.25;1695188;83;20936;-67
2022/03/06 07:36:11;;;;;;;5.42;3.10;;;;;;;12.20;40.53;100685.17;1723857;82;22413;-64
2022/03/06 07:38:39;;;;;;;6.00;3.27;;;;;;;12.21;40.43;100682.88;1715075;82;21476;-64
2022/03/06 07:41:08;;;;;;;6.72;3.85;;;;;;;12.25;40.29;100688.55;1714456;82;21151;-65
2022/03/06 07:43:35;;;;;;;5.03;2.83;;;;;;;12.17;40.75;100687.66;1712467;82;21252;-63
2022/03/06 07:46:02;;;;;;;5.13;3.17;;;;;;;12.15;40.39;100687.52;1717933;82;21600;-68
2022/03/06 07:48:30;;;;;;;4.50;2.70;;;;;;;12.23;40.95;100691.82;1719537;82;21343;-64
2022/03/06 07:50:57;;;;;;;4.37;2.50;;;;;;;12.72;40.85;100688.03;1718256;81;21376;-66
2022/03/06 07:53:28;;;;;;;4.00;2.23;;;;;;;12.97;40.61;100683.75;1690410;82;21089;-63
2022/03/06 07:55:55;;;;;;;3.83;2.10;;;;;;;13.09;40.48;100688.28;1693957;82;21689;-71
2022/03/06 07:58:22;;;;;;;16.97;9.57;;;;;;;13.29;39.35;100681.91;1690686;83;21360;-64
2022/03/06 08:00:51;;;;;;;6.30;3.90;;;;;;;13.11;39.35;100691.53;1693956;82;21714;-64
2022/03/06 08:03:19;;;;;;;10.63;6.57;;;;;;;12.80;38.83;100692.33;1670055;83;21351;-64
2022/03/06 08:05:48;;;;;;;11.77;6.80;;;;;;;12.44;38.65;100693.69;1710754;82;21259;-65
2022/03/06 08:08:15;;;;;;;8.47;4.70;;;;;;;12.14;39.33;100695.05;1711304;82;21810;-65
2022/03/06 08:10:42;;;;;;;8.40;4.03;;;;;;;12.09;40.02;100702.63;1710563;82;21949;-63
2022/03/06 08:13:09;;;;;;;4.90;2.80;;;;;;;12.25;40.58;100697.69;1730084;82;22659;-65
2022/03/06 08:15:36;;;;;;;5.80;3.77;;;;;;;12.36;39.82;100695.91;1716484;82;21286;-70
2022/03/06 08:18:04;;;;;;;6.13;4.13;;;;;;;12.38;39.29;100705.17;1726568;82;22379;-72
2022/03/06 08:20:33;;;;;;;4.77;3.07;;;;;;;12.22;39.34;100702.78;1716205;82;21347;-63
2022/03/06 08:23:01;;;;;;;5.85;2.92;;;;;;;12.17;39.69;100702.52;1726423;82;21819;-63
2022/03/06 08:25:28;;;;;;;4.50;2.90;;;;;;;12.24;39.54;100699.50;1716546;82;21068;-69
2022/03/06 08:27:56;;;;;;;6.30;3.10;;;;;;;12.35;39.75;100704.26;1714968;82;21181;-70
2022/03/06 08:30:24;;;;;;;6.20;3.17;;;;;;;12.48;39.05;100702.78;1716960;82;21931;-62
2022/03/06 08:32:53;;;;;;;4.60;2.60;;;;;;;12.27;39.40;100709.56;1713804;82;21064;-62
2022/03/06 08:35:21;;;;;;;5.13;2.70;;;;;;;12.43;37.96;100703.34;1715097;82;21757;-62
2022/03/06 08:37:50;;;;;;;6.87;4.93;;;;;;;12.43;36.84;100698.61;1713087;82;21346;-67
2022/03/06 08:40:19;;;;;;;5.50;2.30;;;;;;;12.36;36.15;100707.17;1714931;82;21267;-65
2022/03/06 08:42:47;;;;;;;3.45;1.72;;;;;;;12.09;35.53;100705.24;1713951;82;21911;-63
2022/03/06 08:45:14;;;;;;;3.50;1.42;;;;;;;11.72;34.44;100697.78;1715498;82;21075;-61
2022/03/06 08:47:45;;;;;;;3.30;1.37;;;;;;;11.39;34.62;100703.30;1715482;82;21046;-64
2022/03/06 08:50:12;;;;;;;4.20;1.98;;;;;;;11.13;34.93;100708.09;1715313;82;22356;-62
2022/03/06 08:52:40;;;;;;;3.22;1.52;;;;;;;10.86;35.33;100706.84;1722204;82;21126;-62
2022/03/06 08:55:09;;;;;;;6.58;3.25;;;;;;;10.81;35.25;100710.47;1714346;82;21200;-63
2022/03/06 08:57:37;;;;;;;4.25;2.40;;;;;;;10.69;35.47;100704.34;1723118;82;21146;-62
2022/03/06 09:00:08;;;;;;;4.97;2.37;;;;;;;10.55;35.40;100710.78;1713228;82;21035;-63
2022/03/06 09:02:37;;;;;;;4.47;2.70;;;;;;;10.55;35.99;100708.98;1718894;81;21098;-62
2022/03/06 09:05:07;;;;;;;4.83;2.70;;;;;;;10.60;36.60;100703.25;1731337;81;21082;-68
2022/03/06 09:07:35;;;;;;;4.12;2.50;;;;;;;10.75;36.01;100705.94;1676294;84;21269;-65
2022/03/06 09:10:06;;;;;;;3.58;1.90;;;;;;;10.96;35.77;100712.15;1713237;82;21046;-64
2022/03/06 09:12:35;;;;;;;4.35;1.87;;;;;;;10.80;35.44;100711.46;1710225;82;21058;-64
2022/03/06 09:15:07;;;;;;;3.72;2.00;;;;;;;10.96;34.96;100710.03;1716724;82;21474;-68
2022/03/06 09:17:37;;;;;;;5.65;3.15;;;;;;;11.19;35.24;100709.52;1711195;82;21703;-67
2022/03/06 09:20:06;;;;;;;3.42;1.40;;;;;;;11.31;35.23;100703.39;1719153;82;21147;-62
2022/03/06 09:22:34;;;;;;;3.25;1.62;;;;;;;11.36;35.56;100706.27;1715350;82;21267;-62
2022/03/06 09:25:03;;;;;;;4.05;1.70;;;;;;;11.59;35.56;100698.88;1709904;83;21024;-70
2022/03/06 09:27:31;;;;;;;5.95;3.58;;;;;;;11.51;34.72;100706.80;1713421;82;21167;-62
2022/03/06 09:29:59;;;;;;;3.55;2.00;;;;;;;11.38;34.90;100708.22;1711463;82;21655;-63
2022/03/06 09:32:30;;;;;;;3.60;1.90;;;;;;;11.26;35.59;100711.44;1707663;82;22490;-62
2022/03/06 09:34:59;;;;;;;4.50;2.15;;;;;;;11.49;35.57;100704.38;1714439;82;21561;-73
2022/03/06 09:37:33;;;;;;;3.80;2.08;;;;;;;11.63;35.62;100698.84;1712069;82;21086;-64
2022/03/06 09:40:02;;;;;;;3.72;2.05;;;;;;;11.91;36.07;100700.38;1713298;82;21078;-60
2022/03/06 09:42:30;;;;;;;4.03;1.98;;;;;;;12.20;35.09;100703.94;1715663;82;21321;-62
2022/03/06 09:45:03;;;;;;;3.60;1.72;;;;;;;12.26;34.73;100697.50;1713742;82;21260;-72
2022/03/06 09:47:33;;;;;;;4.15;1.40;;;;;;;12.57;33.29;100694.63;1703415;82;21039;-62
2022/03/06 09:50:03;;;;;;;3.62;2.27;;;;;;;12.59;34.06;100695.77;1713898;82;21624;-63
2022/03/06 09:52:33;;;;;;;4.70;2.70;;;;;;;12.49;35.07;100693.94;1717716;82;21161;-60
2022/03/06 09:55:01;;;;;;;3.37;2.00;;;;;;;12.74;34.36;100689.98;1717430;82;21090;-61
2022/03/06 09:57:29;;;;;;;5.08;2.42;;;;;;;13.15;34.17;100687.53;1723124;82;21161;-62
2022/03/06 09:59:58;;;;;;;3.87;2.08;;;;;;;13.25;33.97;100680.67;1728669;82;20968;-61
2022/03/06 10:02:27;;;;;;;3.53;1.50;;;;;;;13.41;33.97;100675.68;1717424;82;21114;-65
2022/03/06 10:04:55;;;;;;;4.47;2.73;;;;;;;13.48;33.97;100671.77;1715104;82;21321;-74
2022/03/06 10:07:30;;;;;;;5.17;3.67;;;;;;;13.72;33.89;100673.95;1724579;81;21856;-60
2022/03/06 10:10:00;;;;;;;6.93;3.67;;;;;;;13.90;33.55;100675.23;1729692;80;22005;-61
2022/03/06 10:12:32;;;;;;;5.03;2.57;;;;;;;14.07;32.97;100677.34;1728741;82;21219;-72
2022/03/06 10:15:04;;;;;;;4.07;1.63;;;;;;;14.04;32.18;100683.47;1726787;82;21340;-63
2022/03/06 10:17:32;;;;;;;2.40;1.37;;;;;;;13.86;31.97;100687.44;1731415;81;21220;-61
2022/03/06 10:20:12;;;;;;;4.27;1.70;;;;;;;13.93;31.05;100691.88;1736703;80;21136;-60
2022/03/06 10:22:40;;;;;;;2.87;1.40;;;;;;;13.91;30.25;100687.36;1721828;81;21339;-61
2022/03/06 10:25:13;;;;;;;4.80;2.60;;;;;;;13.88;30.19;100691.97;1730362;80;21346;-60
2022/03/06 10:27:54;;;;;;;3.67;2.33;;;;;;;13.87;30.66;100695.59;1721551;82;21333;-63
2022/03/06 10:30:35;;;;;;;4.33;2.15;;;;;;;13.96;30.66;100700.67;1727885;82;21731;-62
2022/03/06 10:33:10;;;;;;;7.87;4.90;;;;;;;14.13;31.26;100692.80;1729397;82;21576;-66
2022/03/06 10:35:42;;;;;;;6.47;4.40;;;;;;;14.32;30.78;100703.87;1729877;80;21156;-62
2022/03/06 10:38:29;;;;;;;3.70;2.30;;;;;;;14.43;30.12;100699.03;1727619;81;21269;-75
2022/03/06 10:41:02;;;;;;;3.33;2.00;;;;;;;14.81;30.65;100694.94;1720032;81;21696;-63
2022/03/06 10:43:32;;;;;;;4.60;2.00;;;;;;;15.08;30.20;100691.02;1722989;81;21083;-61
2022/03/06 10:46:09;;;;;;;4.10;2.07;;;;;;;15.42;28.95;100692.62;1724291;82;21867;-65
2022/03/06 10:48:43;;;;;;;6.80;4.10;;;;;;;15.76;30.06;100690.78;1714669;81;21277;-63
2022/03/06 10:51:13;;;;;;;6.37;3.13;;;;;;;16.23;28.84;100690.09;1715842;82;21196;-62
2022/03/06 10:53:42;;;;;;;4.67;2.65;;;;;;;16.15;28.10;100684.56;1722519;80;21196;-70
2022/03/06 10:56:15;;;;;;;5.87;3.17;;;;;;;15.74;28.00;100693.59;1719400;82;22700;-68
2022/03/06 10:58:46;;;;;;;5.47;3.00;;;;;;;15.30;28.41;100681.93;1729262;80;21379;-73
2022/03/06 11:01:13;;;;;;;4.50;2.80;;;;;;;15.36;28.94;100684.74;1696295;82;22341;-65
2022/03/06 11:03:43;;;;;;;4.53;2.40;;;;;;;15.56;28.38;100679.75;1723710;81;21290;-73
2022/03/06 11:06:12;;;;;;;7.47;3.87;;;;;;;15.19;28.30;100669.41;1716425;82;21708;-63
2022/03/06 11:08:39;;;;;;;7.23;4.23;;;;;;;15.46;27.78;100678.58;1726531;80;21965;-63
2022/03/06 11:11:09;;;;;;;9.10;4.73;;;;;;;15.43;27.85;100675.03;1697572;81;21252;-64
2022/03/06 11:13:39;;;;;;;13.73;7.67;;;;;;;15.51;27.62;100672.99;1718924;81;21862;-71
2022/03/06 11:16:07;;;;;;;4.40;2.47;;;;;;;15.61;28.11;100673.89;1716632;82;21970;-77
2022/03/06 11:18:39;;;;;;;6.97;2.63;;;;;;;15.70;27.32;100667.42;1708000;83;21126;-65
2022/03/06 11:21:09;;;;;;;3.53;2.10;;;;;;;15.54;28.03;100667.84;1712034;82;21186;-63
2022/03/06 11:23:43;;;;;;;3.83;1.90;;;;;;;15.23;27.79;100669.30;1701815;83;21386;-68
2022/03/06 11:26:16;;;;;;;3.47;1.83;;;;;;;15.25;28.16;100668.58;1717468;81;22660;-69
2022/03/06 11:28:52;;;;;;;3.67;1.70;;;;;;;15.22;27.67;100665.04;1717588;81;21177;-64
2022/03/06 11:31:22;;;;;;;3.80;2.10;;;;;;;15.19;27.54;100670.72;1717077;82;21288;-65
2022/03/06 11:33:57;;;;;;;5.25;2.58;;;;;;;15.12;27.61;100673.85;1713359;81;21222;-64
2022/03/06 11:36:26;;;;;;;3.73;1.70;;;;;;;15.17;27.96;100680.61;1703860;81;21078;-63